Lagrange, ME

3:07 PM EDT on September 01, 2014 (GMT -0400)
SeDoMoCha Campus | Change Station
CLOSE
Current Station
Personal Weather Station
Location: Dover-Foxcroft, ME
Elevation: 381 ft
Nearby Weather Stations
Active Advisory: Special Statement

Elev 381 ft 45.19 °N, 69.23 °W | Updated 5 seconds ago

Overcast
Overcast
72.0 °F
Feels Like 70 °F
N
2.0
Wind Variable Wind from NNE
Gusts 3.0 mph

Today
High -- | Low -- °F
--% Chance of Precip.
Yesterday
High -- | Low -- °F
Precip. -- in
5:56 AM 7:12 PM
Waxing Crescent, 43% visible
Pressure 29.89 in
Visibility 10.0 miles
Clouds Few 4900 ft
Scattered Clouds 7000 ft
Mostly Cloudy 15000 ft
Heat Index 70 °F
Dew Point 68 °F
Humidity 87%
Rainfall 0.00 in
Snow Depth Not available.
UV 3 out of 12
Pollen 4.30 out of 12
Air Quality Not available.
Flu Activity Not available.
METAR KBGR 011853Z 20007KT 10SM FEW049 SCT070 BKN150 28/19 A2990 RMK AO2 SLP122 TCU ALQDS HAZY T02830194

More Conditions Fewer Conditions

Pressure 29.89 in
Visibility 10.0 miles
Clouds Few 4900 ft
Scattered Clouds 7000 ft
Mostly Cloudy 15000 ft
Heat Index 70 °F
Dew Point 68 °F
Humidity 87%
Rainfall 0.00 in
Snow Depth Not available.
UV 3 out of 12
Pollen 4.30 out of 12
Air Quality Not available.
Flu Activity Not available.
METAR KBGR 011853Z 20007KT 10SM FEW049 SCT070 BKN150 28/19 A2990 RMK AO2 SLP122 TCU ALQDS HAZY T02830194

More Conditions Fewer Conditions

10-Day Weather Forecast

Almanac

Astronomy

Sep. 01, 2014 Rise Set
Actual Time 5:56 AM EDT 7:12 PM EDT
Civil Twilight 5:26 AM EDT 7:43 PM EDT
Nautical Twilight 4:49 AM EDT 8:19 PM EDT
Astronomical Twilight 4:10 AM EDT 8:58 PM EDT
Moon 12:57 PM EDT 10:52 PM EDT
Length of Visible Light 14h 16m
Length of Day
13h 15m
Tomorrow will be 3m 2s shorter.
Waxing Crescent, 43% of the Moon is Illuminated
Today
Waxing Crescent
Sep 2
First Quarter
Sep 8
Full
Sep 15
Last Quarter
Sep 24
New

Today's Extremes

State Highs State Lows

Community

WunderPhotos

Upload Photos

1,749,367 photos uploaded!

WunderBlogs® & News

Nearby

Air Quality

  Air Quality AQ Index Pollutant
Monday Good
OZONE
Monday Good
PM2.5
Tuesday Good
OZONE
Tuesday Good
PM2.5
Wednesday Good
OZONE
Wednesday Good
PM2.5

Snow Depth

Station Depth Elevation
No new snow has been reported.

Earthquake Activity

City Distance Mag. Time & Date
No recent earthquake activity has been reported nearby.
Minimum magnitude displayed is 2.5.

Coastal Water Temperatures

Place Temperature
No Stations Reporting

Nearby Weather Stations